Time;durP1;ratioP1;P1;durP2;ratioP2;P2;SDS_P1;SDS_P2;PMS_P1;PMS_P2;Temp;Humidity;BMP_temperature;BMP_pressure;BME280_temperature;BME280_humidity;BME280_pressure;Samples;Min_cycle;Max_cycle;Signal;HPM_P1;HPM_P2
2022/12/15 00:40:57;;;;;;;21.23;12.27;;;-2.10;71.00;;;0.59;54.25;100332.13;5058818;28;20177;-52
2022/12/15 00:43:25;;;;;;;20.87;12.10;;;-2.00;70.90;;;0.59;54.97;100340.69;5058465;28;20176;-53
2022/12/15 00:48:40;;;;;;;21.97;11.73;;;-2.00;70.50;;;0.62;54.82;100324.94;5053735;28;20238;-50
2022/12/15 00:51:08;;;;;;;19.23;12.53;;;-2.00;70.50;;;0.64;54.04;100327.41;5053757;28;20226;-52
2022/12/15 01:21:23;;;;;;;19.10;11.83;;;-1.70;70.30;;;1.24;53.44;100353.56;5053335;28;20210;-52
2022/12/15 01:23:52;;;;;;;19.20;12.00;;;-1.60;70.50;;;1.31;53.06;100352.09;5052654;28;20248;-52
2022/12/15 01:26:19;;;;;;;18.27;11.73;;;-1.60;70.20;;;1.36;53.75;100357.75;5053322;28;20665;-52
2022/12/15 01:28:46;;;;;;;24.00;12.83;;;-1.60;70.30;;;1.44;53.26;100353.69;5053211;28;20210;-53
2022/12/15 01:31:13;;;;;;;22.33;12.60;;;-1.60;70.20;;;1.50;53.56;100358.41;5054680;28;20655;-52
2022/12/15 01:33:44;;;;;;;21.43;11.63;;;-1.50;70.70;;;1.57;53.69;100359.53;5054945;28;20265;-50
2022/12/15 01:36:11;;;;;;;21.10;12.37;;;-1.50;70.30;;;1.60;52.82;100359.25;5053069;28;20222;-51
2022/12/15 01:38:41;;;;;;;19.63;12.20;;;-1.40;70.60;;;1.54;53.27;100364.97;5052840;28;20215;-50
2022/12/15 01:41:11;;;;;;;16.10;11.30;;;-1.40;69.80;;;1.57;53.29;100359.53;5057850;28;20186;-52
2022/12/15 01:43:39;;;;;;;19.93;12.90;;;-1.30;70.20;;;1.65;52.68;100378.69;5062672;28;20206;-53
2022/12/15 01:46:09;;;;;;;23.23;12.73;;;-1.30;70.00;;;1.67;52.72;100381.13;5066344;28;20715;-53
2022/12/15 01:48:45;;;;;;;21.67;12.37;;;-1.30;69.70;;;1.65;52.86;100378.69;5064965;28;20220;-52
2022/12/15 01:51:18;;;;;;;20.20;12.80;;;-1.30;69.60;;;1.63;52.06;100371.97;5064479;28;20171;-55
2022/12/15 01:53:58;;;;;;;19.03;11.47;;;-1.30;69.50;;;1.60;52.25;100374.81;5065537;28;20245;-53
2022/12/15 01:56:31;;;;;;;19.10;12.43;;;-1.30;69.70;;;1.61;52.83;100384.25;5061996;28;20203;-51
2022/12/15 01:59:07;;;;;;;20.27;12.50;;;-1.40;69.70;;;1.60;53.02;100385.19;5063187;28;20215;-52
2022/12/15 02:01:35;;;;;;;20.20;12.70;;;-1.40;69.80;;;1.59;52.14;100389.56;5059713;28;20192;-51
2022/12/15 02:04:03;;;;;;;21.73;13.87;;;-1.40;69.80;;;1.60;52.64;100385.19;5060445;28;20214;-51
2022/12/15 02:06:30;;;;;;;21.23;13.07;;;-1.40;70.00;;;1.61;52.40;100382.50;5061817;28;20192;-54
2022/12/15 02:09:00;;;;;;;22.20;13.90;;;-1.40;70.30;;;1.61;53.09;100381.66;5063740;28;20284;-52
2022/12/15 02:11:58;;;;;;;16.80;12.00;;;-1.40;70.30;;;1.58;53.17;100387.09;5058872;28;20739;-50
2022/12/15 02:14:53;;;;;;;18.77;12.33;;;-1.40;70.30;;;1.56;53.13;100392.41;5061176;28;20211;-52
2022/12/15 02:17:35;;;;;;;20.90;12.53;;;-1.40;70.30;;;1.53;52.71;100384.03;5059745;28;20620;-50
2022/12/15 02:20:44;;;;;;;19.97;12.93;;;-1.40;70.20;;;1.36;53.62;100390.59;5058548;28;20213;-50
2022/12/15 02:24:03;;;;;;;18.60;12.33;;;-1.40;70.30;;;1.35;53.74;100388.97;5031094;28;20261;-50
2022/12/15 02:27:14;;;;;;;19.77;13.07;;;-1.40;70.20;;;1.31;53.69;100388.41;5052203;28;20570;-52
2022/12/15 02:30:21;;;;;;;18.80;13.13;;;-1.40;70.30;;;1.32;53.11;100384.88;5059365;28;20215;-51
2022/12/15 02:33:05;;;;;;;19.67;12.93;;;-1.50;70.40;;;1.26;53.37;100390.53;5060173;28;20217;-54
2022/12/15 02:35:46;;;;;;;19.73;12.23;;;-1.50;70.30;;;1.30;54.43;100389.34;5059216;28;20181;-54
2022/12/15 02:38:13;;;;;;;24.07;13.60;;;-1.50;70.60;;;1.29;54.02;100398.06;5058869;28;20609;-52
2022/12/15 02:40:41;;;;;;;15.80;11.30;;;-1.40;70.70;;;1.35;53.96;100387.19;5059316;28;20197;-52
2022/12/15 02:43:09;;;;;;;21.20;12.10;;;-1.40;70.70;;;1.38;54.06;100380.13;5058274;28;20187;-51
2022/12/15 02:45:54;;;;;;;17.47;11.93;;;-1.40;70.80;;;1.40;53.85;100386.00;5058151;28;20638;-51
2022/12/15 02:48:35;;;;;;;20.53;11.83;;;-1.40;70.90;;;1.48;53.83;100381.00;5057995;28;20201;-50
2022/12/15 02:51:20;;;;;;;17.37;12.30;;;-1.40;70.90;;;1.55;53.33;100379.56;5059800;28;20213;-50
2022/12/15 02:54:13;;;;;;;19.00;11.60;;;-1.30;70.80;;;1.58;53.03;100381.91;5060892;28;20315;-52
2022/12/15 02:56:53;;;;;;;18.77;12.03;;;-1.30;70.80;;;1.65;53.07;100389.06;5059925;28;20221;-50
2022/12/15 02:59:33;;;;;;;23.37;12.00;;;-1.30;70.90;;;1.69;52.71;100400.81;5059186;28;20246;-51
2022/12/15 03:02:05;;;;;;;17.50;10.97;;;-1.30;70.60;;;1.72;52.45;100397.16;5059229;28;20174;-51
2022/12/15 03:04:32;;;;;;;20.03;12.60;;;-1.30;70.50;;;1.70;53.21;100396.47;5058913;28;20217;-52
2022/12/15 03:07:03;;;;;;;18.23;11.87;;;-1.30;70.40;;;1.69;52.70;100402.59;5061217;28;20193;-52
2022/12/15 03:09:32;;;;;;;20.30;12.23;;;-1.30;70.50;;;1.69;53.23;100398.22;5059750;28;20211;-52
2022/12/15 03:11:59;;;;;;;18.40;12.13;;;-1.30;70.80;;;1.73;53.74;100396.22;5063353;28;20220;-54
2022/12/15 03:14:27;;;;;;;19.23;12.63;;;-1.30;71.10;;;1.76;53.64;100398.56;5063493;28;20517;-55
2022/12/15 03:16:54;;;;;;;19.53;12.30;;;-1.30;71.30;;;1.80;52.86;100386.97;5058949;28;20288;-51
2022/12/15 03:19:24;;;;;;;19.07;11.90;;;-1.20;71.30;;;1.80;53.53;100386.97;5057914;28;20288;-53
2022/12/15 03:21:51;;;;;;;17.20;11.67;;;-1.20;71.10;;;1.80;53.37;100392.16;5059878;28;20187;-53
2022/12/15 03:24:19;;;;;;;19.40;12.93;;;-1.20;71.10;;;1.79;52.86;100395.69;5059002;28;20191;-54
2022/12/15 03:26:48;;;;;;;17.73;12.27;;;-1.20;71.10;;;1.76;53.37;100403.75;5058843;28;20195;-53
2022/12/15 03:29:16;;;;;;;21.83;13.20;;;-1.20;71.20;;;1.75;53.53;100407.28;5058464;28;20256;-54
2022/12/15 03:31:43;;;;;;;19.23;12.27;;;-1.20;71.30;;;1.74;53.08;100403.84;5059429;28;20198;-54
2022/12/15 03:34:11;;;;;;;17.70;12.07;;;-1.30;71.20;;;1.72;53.11;100405.75;5059420;28;20216;-53
2022/12/15 03:36:39;;;;;;;18.57;11.77;;;-1.30;71.30;;;1.74;54.08;100414.22;5057781;28;20203;-53
2022/12/15 03:39:06;;;;;;;15.80;11.97;;;-1.30;71.60;;;1.77;53.29;100408.78;5057375;28;20217;-53
2022/12/15 03:41:33;;;;;;;20.57;12.57;;;-1.20;71.80;;;1.81;53.74;100425.75;5058490;28;20560;-51
2022/12/15 03:44:01;;;;;;;19.20;11.93;;;-1.20;71.90;;;1.82;53.80;100416.19;5058064;28;20191;-50
2022/12/15 03:46:28;;;;;;;19.57;11.37;;;-1.20;71.80;;;1.88;54.31;100410.50;5058605;28;20224;-52
2022/12/15 03:48:55;;;;;;;19.40;12.60;;;-1.10;72.30;;;1.92;53.31;100417.09;5059184;28;20214;-53
2022/12/15 03:51:22;;;;;;;18.90;11.03;;;-1.10;72.00;;;1.97;53.89;100415.72;5061505;28;20187;-53
2022/12/15 03:53:51;;;;;;;18.27;10.70;;;-1.10;72.00;;;2.01;53.71;100418.91;5062695;28;20191;-54
2022/12/15 03:56:18;;;;;;;16.33;10.97;;;-1.00;71.90;;;2.03;53.72;100419.59;5065102;28;20265;-54
2022/12/15 03:58:45;;;;;;;20.07;12.47;;;-1.00;72.00;;;2.02;53.31;100423.16;5064804;28;20223;-54
2022/12/15 04:01:25;;;;;;;17.60;12.37;;;-0.90;71.60;;;2.05;54.02;100417.69;5057754;28;20248;-55
2022/12/15 04:03:53;;;;;;;17.53;11.77;;;-0.80;72.00;;;2.11;53.15;100426.75;5054187;28;20277;-52
2022/12/15 04:06:27;;;;;;;17.70;11.30;;;-0.80;71.40;;;2.13;53.53;100415.28;5053664;28;20187;-52
2022/12/15 04:08:56;;;;;;;17.67;11.93;;;-0.80;71.10;;;2.04;53.69;100421.25;5053620;28;20700;-52
2022/12/15 04:11:23;;;;;;;17.40;11.60;;;-0.70;70.70;;;1.95;53.88;100417.63;5053828;28;20192;-52
2022/12/15 04:13:50;;;;;;;17.90;11.70;;;-0.80;70.40;;;1.90;54.01;100419.78;5053768;28;20202;-53
2022/12/15 04:16:17;;;;;;;19.97;12.63;;;-0.80;70.60;;;1.78;54.30;100422.59;5054016;28;20245;-51
2022/12/15 04:20:07;;;;;;;21.10;11.73;;;-0.80;70.60;;;1.67;54.69;100420.03;5053922;28;20221;-51
2022/12/15 04:21:33;;;;;;;19.00;11.50;;;-0.90;70.90;;;1.59;54.61;100419.88;5053867;28;20198;-51
2022/12/15 05:33:10;;;;;;;16.17;11.40;;;-0.80;72.90;;;2.08;54.55;100469.34;5037834;28;20702;-52
2022/12/15 05:35:36;;;;;;;18.43;10.43;;;-0.90;72.90;;;2.09;54.75;100471.00;5039365;28;20199;-52
2022/12/15 05:38:04;;;;;;;16.67;11.13;;;-0.90;73.00;;;2.10;55.05;100469.22;5053056;28;20685;-53
2022/12/15 05:40:31;;;;;;;18.97;11.97;;;-0.80;73.20;;;2.03;54.58;100471.50;5036272;28;20596;-51
2022/12/15 05:42:59;;;;;;;17.83;10.87;;;-0.90;72.80;;;1.98;55.26;100477.06;5037030;28;20206;-52
2022/12/15 05:45:28;;;;;;;19.50;11.17;;;-0.80;73.10;;;2.00;54.77;100471.75;5038227;28;20196;-53
2022/12/15 05:47:55;;;;;;;17.37;10.80;;;-0.80;73.30;;;2.04;55.83;100478.34;5056786;28;20762;-52
2022/12/15 05:50:22;;;;;;;18.17;10.83;;;-0.80;73.50;;;2.11;55.46;100473.47;5055914;28;20211;-52
2022/12/15 05:52:49;;;;;;;20.20;11.67;;;-0.80;73.40;;;2.14;55.36;100474.00;5056131;28;20203;-55
2022/12/15 05:55:17;;;;;;;19.80;11.67;;;-0.80;73.20;;;2.13;55.11;100477.59;5057240;28;20252;-51
2022/12/15 05:57:50;;;;;;;23.70;12.07;;;-0.80;72.90;;;2.09;55.07;100481.38;5055242;28;20211;-51
2022/12/15 06:00:18;;;;;;;16.97;10.77;;;-0.70;73.00;;;2.06;54.86;100471.25;5056117;28;20268;-52
2022/12/15 06:02:46;;;;;;;18.90;11.80;;;-0.80;72.80;;;1.92;55.33;100469.81;5071327;28;20594;-51
2022/12/15 06:05:16;;;;;;;16.57;11.57;;;-0.80;72.90;;;1.87;55.29;100471.13;5056314;28;20175;-53
2022/12/15 06:07:43;;;;;;;19.77;11.37;;;-0.80;72.80;;;1.77;55.68;100470.22;5055866;28;20200;-53
2022/12/15 06:10:10;;;;;;;19.70;11.53;;;-0.90;73.20;;;1.63;56.44;100473.09;5054618;28;20211;-51
2022/12/15 06:12:37;;;;;;;16.73;10.93;;;-1.00;73.50;;;1.61;56.68;100485.38;5055486;28;20207;-51
2022/12/15 06:15:05;;;;;;;17.77;12.03;;;-1.00;73.60;;;1.62;56.85;100476.63;5055465;28;20652;-51
2022/12/15 06:17:33;;;;;;;16.57;11.37;;;-1.00;74.00;;;1.63;56.80;100479.13;5054554;28;20215;-51
2022/12/15 06:20:01;;;;;;;18.10;11.70;;;-1.00;73.90;;;1.61;56.32;100482.78;5055469;28;20215;-52
2022/12/15 06:22:28;;;;;;;19.60;11.77;;;-1.10;74.10;;;1.47;57.28;100483.91;5055477;28;20489;-52
2022/12/15 06:24:55;;;;;;;15.03;11.20;;;-1.10;74.40;;;1.46;56.97;100491.78;5055585;28;20670;-52
2022/12/15 06:27:23;;;;;;;17.57;10.83;;;-1.10;74.30;;;1.33;57.11;100497.94;5055429;28;20191;-53
2022/12/15 06:29:50;;;;;;;16.07;10.90;;;-1.20;74.60;;;1.32;57.91;100496.31;5054850;28;20222;-52
2022/12/15 06:32:17;;;;;;;16.80;10.80;;;-1.20;74.60;;;1.36;56.94;100509.84;5055991;28;20731;-52
2022/12/15 06:34:44;;;;;;;17.57;10.63;;;-1.20;74.80;;;1.48;56.75;100510.63;5053450;28;20203;-52
2022/12/15 06:37:12;;;;;;;16.43;11.20;;;-1.30;74.80;;;1.51;56.36;100505.22;5047175;28;20748;-53
2022/12/15 06:39:39;;;;;;;18.67;12.77;;;-1.30;75.00;;;1.59;57.11;100513.22;5054863;28;20230;-52
2022/12/15 06:42:06;;;;;;;18.20;12.57;;;-1.20;75.50;;;1.64;56.34;100522.25;5055080;28;20200;-53
2022/12/15 06:44:33;;;;;;;17.00;11.87;;;-1.20;75.50;;;1.66;56.23;100529.91;5055022;28;20265;-51
2022/12/15 06:47:00;;;;;;;18.10;12.20;;;-1.20;75.10;;;1.70;56.23;100534.75;5050847;28;20219;-54
2022/12/15 06:49:27;;;;;;;19.43;11.77;;;-1.10;75.20;;;1.73;56.26;100534.50;5034869;28;20250;-55
2022/12/15 06:51:54;;;;;;;19.07;12.37;;;-1.10;75.10;;;1.77;56.19;100529.88;5035962;28;20549;-52
2022/12/15 06:54:23;;;;;;;17.10;12.17;;;-1.10;74.80;;;1.76;56.11;100533.44;5037117;28;20636;-51
2022/12/15 06:56:51;;;;;;;17.30;12.40;;;-1.10;74.50;;;1.80;56.49;100533.06;5036743;28;20199;-53
2022/12/15 06:59:17;;;;;;;15.57;10.57;;;-1.00;74.90;;;1.86;56.67;100534.31;5035062;28;20235;-51
2022/12/15 07:01:45;;;;;;;16.97;12.00;;;-1.10;74.60;;;1.86;55.74;100529.13;5035108;28;20194;-51
2022/12/15 07:04:12;;;;;;;14.93;10.93;;;-1.00;74.70;;;1.86;56.42;100534.31;5054517;28;20248;-53
2022/12/15 07:06:39;;;;;;;17.70;11.73;;;-1.00;74.50;;;1.87;56.41;100539.41;5058358;28;20199;-52
2022/12/15 07:09:14;;;;;;;19.40;11.40;;;-1.00;74.60;;;1.77;56.01;100542.84;5040962;28;20219;-54
2022/12/15 07:11:44;;;;;;;17.33;11.50;;;-1.00;75.40;;;1.63;57.09;100540.53;5054831;28;20575;-52
2022/12/15 07:14:11;;;;;;;17.37;11.23;;;-1.00;74.80;;;1.47;57.28;100546.13;5054419;28;20265;-51
2022/12/15 07:16:38;;;;;;;14.90;10.73;;;-1.10;74.90;;;1.34;57.46;100551.44;5055749;28;20191;-53
2022/12/15 07:19:05;;;;;;;17.40;11.07;;;-1.10;75.10;;;1.30;57.82;100554.41;5056027;28;20249;-53
2022/12/15 07:21:32;;;;;;;15.67;11.80;;;-1.20;75.10;;;1.30;57.64;100559.59;5056488;28;20198;-53
2022/12/15 07:23:59;;;;;;;20.50;12.33;;;-1.20;75.20;;;1.32;58.27;100563.72;5056665;28;20196;-54
2022/12/15 07:26:28;;;;;;;17.87;11.27;;;-1.20;75.20;;;1.32;57.94;100558.53;5055581;28;20225;-51
2022/12/15 07:28:56;;;;;;;21.37;11.47;;;-1.20;75.60;;;1.28;58.43;100564.88;5053394;28;20210;-51
2022/12/15 07:31:23;;;;;;;17.93;10.37;;;-1.30;75.50;;;1.34;57.76;100567.00;5053907;28;20350;-54
2022/12/15 07:33:51;;;;;;;20.80;12.23;;;-1.30;75.70;;;1.29;57.68;100571.72;5054652;28;20198;-54
2022/12/15 07:36:18;;;;;;;20.37;12.03;;;-1.30;75.90;;;1.31;57.90;100572.41;5053847;28;20200;-53
2022/12/15 07:38:45;;;;;;;18.30;11.53;;;-1.30;76.00;;;1.28;57.69;100577.81;5053834;28;20235;-51
2022/12/15 07:41:18;;;;;;;24.60;14.03;;;-1.30;76.00;;;1.36;58.55;100574.63;5054028;28;20178;-52
2022/12/15 07:43:46;;;;;;;18.80;11.53;;;-1.30;76.30;;;1.48;58.43;100571.09;5054203;28;20195;-52
2022/12/15 07:46:16;;;;;;;18.63;11.40;;;-1.30;76.30;;;1.60;57.62;100582.25;5054241;28;20625;-52
2022/12/15 07:48:44;;;;;;;17.33;11.83;;;-1.20;76.40;;;1.62;57.07;100586.38;5054561;28;20285;-52
2022/12/15 07:51:18;;;;;;;19.47;12.23;;;-1.20;76.40;;;1.65;57.08;100580.13;5054221;28;20626;-52
2022/12/15 07:53:48;;;;;;;17.80;11.57;;;-1.10;76.30;;;1.65;57.16;100580.13;5055313;28;20603;-54
2022/12/15 07:56:17;;;;;;;27.33;11.70;;;-1.10;76.10;;;1.69;57.52;100576.38;5055000;28;20631;-52
2022/12/15 07:58:44;;;;;;;15.60;10.40;;;-1.10;76.00;;;1.68;57.11;100585.91;5053269;28;20287;-53
2022/12/15 08:01:14;;;;;;;17.30;11.93;;;-1.10;76.10;;;1.66;57.45;100582.63;5053924;28;20555;-52
2022/12/15 08:03:41;;;;;;;16.63;10.27;;;-1.10;76.00;;;1.58;58.41;100584.97;5053205;28;20257;-53
2022/12/15 08:06:11;;;;;;;19.87;11.60;;;-1.10;76.40;;;1.53;58.26;100586.28;5053786;28;20202;-52
2022/12/15 08:08:39;;;;;;;15.47;11.03;;;-1.10;76.60;;;1.49;58.98;100600.44;5053369;28;20520;-53
2022/12/15 08:11:08;;;;;;;13.00;10.70;;;-1.10;76.60;;;1.46;59.13;100606.69;5053883;28;20587;-52
2022/12/15 08:13:38;;;;;;;15.40;11.17;;;-1.00;76.70;;;1.53;58.56;100607.03;5054309;28;20526;-52
2022/12/15 08:16:27;;;;;;;17.13;11.30;;;-1.10;76.60;;;1.57;58.98;100618.81;5053988;28;20215;-52
2022/12/15 08:18:56;;;;;;;17.47;11.00;;;-1.00;76.60;;;1.59;58.34;100616.94;5052992;28;20229;-51
2022/12/15 08:21:23;;;;;;;15.07;11.00;;;-1.00;76.70;;;1.67;58.45;100622.31;5054891;28;20229;-52
2022/12/15 08:23:50;;;;;;;15.20;10.83;;;-1.00;76.70;;;1.79;58.29;100626.53;5053611;28;20195;-51
2022/12/15 08:26:18;;;;;;;16.40;11.50;;;-1.00;76.80;;;1.86;58.21;100618.16;5053677;28;20560;-51
2022/12/15 08:28:53;;;;;;;17.03;11.70;;;-0.90;76.80;;;1.82;57.58;100614.16;5053525;28;20218;-54
2022/12/15 08:31:22;;;;;;;15.53;10.90;;;-0.90;76.60;;;1.88;57.93;100618.84;5053047;28;20199;-53
2022/12/15 08:33:51;;;;;;;16.70;11.33;;;-0.80;76.50;;;1.84;57.72;100619.22;5053540;28;20195;-51
2022/12/15 08:36:19;;;;;;;15.23;10.40;;;-0.80;76.30;;;1.84;57.59;100616.63;5052840;28;20204;-54
2022/12/15 08:38:46;;;;;;;17.23;11.27;;;-0.70;76.30;;;1.89;58.62;100617.09;5053151;28;20232;-54
2022/12/15 08:41:16;;;;;;;19.07;10.73;;;-0.70;76.10;;;1.92;57.68;100622.03;5054091;28;20678;-52
2022/12/15 08:43:45;;;;;;;14.37;10.17;;;-0.60;76.20;;;2.08;58.35;100629.41;5054081;28;20203;-51
2022/12/15 08:46:21;;;;;;;20.47;11.40;;;-0.60;76.30;;;2.23;57.58;100631.63;5062152;28;20215;-53
2022/12/15 08:48:51;;;;;;;17.67;10.77;;;-0.50;76.50;;;2.30;57.69;100635.38;5066812;28;20214;-52
2022/12/15 08:51:21;;;;;;;15.60;10.50;;;-0.40;76.30;;;2.42;57.52;100636.97;5057975;28;20194;-54
2022/12/15 08:53:49;;;;;;;14.13;10.67;;;-0.40;76.10;;;2.49;57.11;100635.50;5064887;28;20278;-54
2022/12/15 08:56:21;;;;;;;13.77;9.57;;;-0.30;76.00;;;2.60;57.11;100637.22;5058754;28;20200;-52
2022/12/15 08:58:53;;;;;;;15.13;10.23;;;-0.20;75.80;;;2.66;56.70;100639.31;5057477;28;20242;-51
2022/12/15 09:01:23;;;;;;;13.87;10.17;;;-0.10;75.70;;;2.73;56.70;100651.66;5058458;28;20186;-53
2022/12/15 09:03:54;;;;;;;13.67;10.47;;;0.00;75.60;;;2.89;56.19;100653.00;5057378;28;20195;-53
2022/12/15 09:06:24;;;;;;;13.60;10.27;;;0.00;75.40;;;3.00;56.34;100639.91;5059230;28;20187;-54
2022/12/15 09:08:55;;;;;;;16.63;9.77;;;0.10;75.40;;;2.99;56.30;100638.28;5055099;28;20218;-55
2022/12/15 09:11:22;;;;;;;12.93;9.40;;;0.20;74.90;;;3.01;56.14;100647.59;5056183;28;20249;-51
2022/12/15 09:13:58;;;;;;;17.57;9.87;;;0.30;74.80;;;3.01;56.12;100641.56;5059460;28;20286;-55
2022/12/15 09:16:26;;;;;;;15.50;10.37;;;0.30;74.40;;;3.06;56.04;100645.44;5057605;28;20199;-51
2022/12/15 09:19:28;;;;;;;14.93;9.93;;;0.40;74.60;;;3.27;55.93;100642.81;5055736;28;20255;-51
2022/12/15 09:21:55;;;;;;;14.43;9.23;;;0.50;74.70;;;3.18;56.15;100638.38;5037763;28;20206;-55
2022/12/15 09:24:23;;;;;;;14.20;9.67;;;0.50;74.30;;;3.25;55.96;100639.50;5045188;28;20206;-52
2022/12/15 09:27:05;;;;;;;12.07;9.13;;;0.60;74.30;;;3.34;55.72;100638.72;5050506;28;20199;-50
2022/12/15 09:29:35;;;;;;;17.20;10.07;;;0.70;74.30;;;3.49;56.35;100645.22;5055265;28;20207;-53
2022/12/15 09:32:03;;;;;;;13.00;9.87;;;0.70;74.30;;;3.67;55.77;100641.03;5055844;28;20527;-51
2022/12/15 09:34:41;;;;;;;17.23;9.73;;;0.80;74.60;;;3.94;55.34;100649.06;5046831;28;20198;-51
2022/12/15 09:37:08;;;;;;;14.23;9.60;;;0.90;75.20;;;4.26;55.65;100645.38;5043733;28;20657;-52
2022/12/15 09:39:38;;;;;;;12.60;9.13;;;1.10;74.60;;;4.60;54.54;100644.81;5055519;28;20555;-53
2022/12/15 09:42:31;;;;;;;12.87;10.20;;;1.20;74.80;;;4.85;52.62;100640.78;5054738;28;20709;-53
2022/12/15 09:45:06;;;;;;;12.43;10.17;;;1.50;74.10;;;4.73;53.17;100639.34;5051287;28;20280;-51
2022/12/15 09:47:44;;;;;;;13.53;9.37;;;1.60;72.90;;;4.83;53.45;100642.72;5051175;28;20559;-52
2022/12/15 09:50:18;;;;;;;13.27;10.10;;;1.80;72.60;;;4.82;53.36;100645.47;5039254;28;20218;-52
2022/12/15 09:52:50;;;;;;;14.60;9.80;;;1.90;71.80;;;4.71;53.21;100657.69;5056188;28;20212;-52
2022/12/15 09:55:21;;;;;;;15.57;10.40;;;2.00;71.40;;;4.69;53.21;100656.19;5056723;28;20179;-52
2022/12/15 09:57:55;;;;;;;12.80;9.97;;;2.00;71.20;;;4.61;53.28;100656.09;5056521;28;20210;-52
2022/12/15 10:00:29;;;;;;;12.37;8.77;;;2.00;71.00;;;4.51;53.68;100653.47;5055289;28;20599;-52
2022/12/15 10:03:33;;;;;;;12.10;8.90;;;2.00;70.80;;;4.46;53.23;100654.84;5056324;28;20529;-53
2022/12/15 10:06:10;;;;;;;11.30;9.47;;;2.00;70.60;;;4.49;53.48;100665.00;5056505;28;20204;-52
2022/12/15 10:08:54;;;;;;;12.67;8.73;;;1.90;70.70;;;4.61;53.76;100654.28;5055775;28;20213;-51
2022/12/15 10:11:46;;;;;;;13.13;9.80;;;1.90;71.10;;;4.88;52.43;100660.56;5056021;28;20196;-53
2022/12/15 10:14:29;;;;;;;17.67;10.47;;;2.00;71.30;;;5.02;52.39;100662.72;5056331;28;20183;-54
2022/12/15 10:17:13;;;;;;;10.93;9.30;;;2.10;71.20;;;4.99;52.75;100674.25;5056534;28;20187;-52
2022/12/15 10:19:51;;;;;;;12.83;8.97;;;2.20;70.50;;;5.04;51.71;100672.03;5054679;28;20223;-52
2022/12/15 10:22:25;;;;;;;17.17;9.23;;;2.20;70.30;;;5.00;52.55;100670.69;5055921;28;20231;-51
2022/12/15 10:24:58;;;;;;;13.43;8.80;;;2.20;70.00;;;4.93;52.06;100669.59;5055776;28;20205;-52
2022/12/15 10:28:07;;;;;;;13.43;9.47;;;2.30;70.00;;;4.82;52.42;100671.56;5036860;28;20219;-51
2022/12/15 10:30:42;;;;;;;12.10;8.97;;;2.30;69.70;;;4.81;52.24;100665.50;5036093;28;20191;-51
2022/12/15 10:33:18;;;;;;;14.17;9.40;;;2.30;69.70;;;4.88;53.07;100663.16;5035695;28;20176;-52
2022/12/15 10:35:47;;;;;;;14.33;9.47;;;2.30;69.70;;;4.93;52.59;100653.13;5035195;28;20254;-51
2022/12/15 10:38:33;;;;;;;12.37;8.93;;;2.30;69.80;;;4.92;52.90;100654.91;5052818;28;20199;-55
2022/12/15 10:41:06;;;;;;;12.13;9.13;;;2.30;69.80;;;5.03;52.71;100656.56;5055676;28;20740;-53
2022/12/15 10:43:36;;;;;;;24.43;15.67;;;2.40;69.90;;;5.06;51.88;100654.50;5054798;28;20476;-54
2022/12/15 10:46:12;;;;;;;14.87;9.43;;;2.40;70.00;;;5.09;52.74;100654.19;5055780;28;20194;-52
2022/12/15 10:48:41;;;;;;;13.47;8.70;;;2.40;69.90;;;5.20;52.14;100661.88;5055460;28;20221;-53
2022/12/15 10:51:29;;;;;;;12.60;8.13;;;2.50;70.10;;;5.31;52.82;100658.25;5055197;28;20218;-52
2022/12/15 10:54:11;;;;;;;13.87;7.43;;;2.50;70.20;;;5.23;52.40;100658.16;5055026;28;20175;-51
2022/12/15 10:56:49;;;;;;;16.20;10.13;;;2.50;69.80;;;5.31;52.62;100659.06;5054310;28;20182;-53
2022/12/15 10:59:27;;;;;;;11.13;8.30;;;2.60;69.90;;;5.31;51.72;100658.25;5055234;28;20270;-53
2022/12/15 11:02:16;;;;;;;22.07;12.77;;;2.70;69.80;;;5.44;51.87;100656.94;5055358;28;20182;-52
2022/12/15 11:04:55;;;;;;;12.93;9.20;;;2.70;69.90;;;5.62;51.43;100671.84;5056522;28;20246;-53
2022/12/15 11:07:26;;;;;;;12.93;7.73;;;2.80;69.70;;;5.72;51.95;100677.88;5055658;28;20183;-51
2022/12/15 11:10:00;;;;;;;13.73;8.87;;;2.90;69.80;;;5.83;52.10;100664.59;5054493;28;20207;-52
2022/12/15 11:15:44;;;;;;;12.67;8.73;;;3.00;69.00;;;5.75;51.67;100667.94;5054164;28;20194;-52
2022/12/15 11:18:37;;;;;;;12.37;8.67;;;3.10;69.10;;;5.78;51.39;100666.81;5034497;28;20175;-53
2022/12/15 11:21:11;;;;;;;12.97;9.07;;;3.10;69.00;;;5.79;51.11;100663.25;5050575;28;20209;-53
2022/12/15 11:24:00;;;;;;;10.13;7.40;;;3.10;68.80;;;5.86;52.09;100669.56;5063219;28;20232;-55
2022/12/15 11:26:45;;;;;;;14.03;8.10;;;3.20;69.00;;;5.95;51.74;100677.34;5061163;28;20521;-55
2022/12/15 11:29:29;;;;;;;12.57;8.50;;;3.20;68.90;;;6.02;51.08;100670.56;5062016;28;20206;-54
2022/12/15 11:31:56;;;;;;;14.70;8.90;;;3.30;68.80;;;6.14;50.65;100679.03;5062108;28;20377;-53
2022/12/15 11:34:46;;;;;;;11.60;8.77;;;3.30;68.80;;;6.46;50.86;100675.91;5061232;28;20204;-49
2022/12/15 11:37:36;;;;;;;12.70;8.83;;;3.50;69.50;;;7.24;49.47;100681.09;5055083;28;20209;-53
2022/12/15 11:40:38;;;;;;;9.33;8.00;;;3.80;69.50;;;8.13;48.45;100684.91;5054172;28;20648;-52
2022/12/15 11:43:43;;;;;;;10.93;8.13;;;4.40;69.30;;;8.66;46.00;100681.09;5053345;28;20646;-52
2022/12/15 11:46:21;;;;;;;9.90;8.20;;;4.90;66.00;;;8.91;44.89;100680.13;5053805;28;20194;-54
2022/12/15 11:49:15;;;;;;;8.87;7.83;;;5.40;63.80;;;8.92;44.65;100683.53;5053466;28;20217;-53
2022/12/15 11:51:50;;;;;;;13.37;8.27;;;5.80;62.20;;;9.17;44.44;100680.75;5054205;28;20584;-54
2022/12/15 11:54:27;;;;;;;13.03;8.60;;;6.10;61.50;;;9.25;43.46;100680.72;5054352;28;20178;-50
2022/12/15 11:57:08;;;;;;;12.53;8.33;;;6.30;60.10;;;9.09;43.76;100683.38;5054443;28;20217;-53
2022/12/15 12:00:01;;;;;;;10.63;8.13;;;6.40;59.10;;;8.96;44.00;100677.81;5054253;28;20221;-52
2022/12/15 12:02:51;;;;;;;9.47;7.87;;;6.50;58.70;;;8.82;43.96;100670.59;5058006;28;20217;-52
2022/12/15 12:05:42;;;;;;;10.13;7.77;;;6.50;58.70;;;8.82;44.86;100675.81;5053655;28;20178;-54
2022/12/15 12:08:28;;;;;;;12.37;8.40;;;6.50;59.70;;;8.78;44.12;100677.97;5053595;28;20247;-53
2022/12/15 12:11:09;;;;;;;10.90;7.37;;;6.40;58.80;;;8.90;44.67;100672.38;5054519;28;20312;-55
2022/12/15 12:13:47;;;;;;;12.73;8.50;;;6.40;59.40;;;9.07;44.47;100676.63;5052948;28;20284;-53
2022/12/15 12:16:34;;;;;;;12.00;7.43;;;6.40;59.40;;;8.82;43.97;100678.44;5053808;28;20626;-52
2022/12/15 12:19:08;;;;;;;11.90;8.30;;;6.30;59.00;;;8.56;44.59;100688.28;5053165;28;20206;-55
2022/12/15 12:21:41;;;;;;;10.60;7.83;;;6.20;58.80;;;8.26;45.23;100683.63;5033581;28;20286;-56
2022/12/15 12:24:18;;;;;;;10.73;8.70;;;6.00;59.20;;;8.05;45.92;100687.53;5032555;28;20191;-53
2022/12/15 12:26:53;;;;;;;10.97;8.20;;;5.80;59.80;;;7.91;46.18;100680.28;5045895;28;20581;-52
2022/12/15 12:29:30;;;;;;;11.77;8.63;;;5.50;60.30;;;7.73;46.87;100687.41;5054057;28;20222;-54
2022/12/15 12:32:09;;;;;;;9.73;7.33;;;5.40;61.00;;;7.54;47.23;100687.63;5053116;28;20193;-54
2022/12/15 12:34:55;;;;;;;9.90;8.20;;;5.20;61.70;;;7.33;47.66;100689.81;5052201;28;20287;-53
2022/12/15 12:37:55;;;;;;;11.53;8.10;;;5.10;62.50;;;7.30;47.91;100684.88;5053365;28;20298;-53
2022/12/15 12:40:47;;;;;;;13.57;8.43;;;4.90;62.90;;;7.14;48.18;100685.59;5053355;28;20559;-54
2022/12/15 12:43:31;;;;;;;10.90;8.00;;;4.70;63.30;;;7.14;47.94;100683.00;5051655;28;20220;-51
2022/12/15 12:46:09;;;;;;;12.37;8.47;;;4.70;63.80;;;7.08;48.94;100682.78;5049558;28;20200;-55
2022/12/15 12:48:45;;;;;;;13.10;8.77;;;4.60;64.60;;;6.94;49.31;100688.56;5039679;28;20224;-53
2022/12/15 12:51:28;;;;;;;10.87;8.47;;;4.50;65.00;;;6.80;49.44;100688.13;5043940;28;20648;-53
2022/12/15 12:53:57;;;;;;;10.40;8.20;;;4.40;65.30;;;6.75;49.60;100689.59;5050623;28;20197;-53
2022/12/15 12:56:33;;;;;;;11.83;9.13;;;4.30;65.60;;;6.70;49.61;100687.38;5051392;28;20187;-54
2022/12/15 12:59:07;;;;;;;15.57;9.97;;;4.30;65.90;;;6.64;50.53;100693.22;5052021;28;20524;-51
2022/12/15 13:01:36;;;;;;;11.00;8.27;;;4.20;66.40;;;6.66;50.77;100691.28;5051157;28;20304;-53